Terminal Aerodrome Forecast
Issued by NWS

Current Version | Previous Version | Graphics & Text | Print | Product List | Glossary On
Versions: 1 2 3 4 5 6 7 8 9 10 11 12 13 14 15 16 17 18 19 20 21 22 23 24 25 26 27 28 29 30 31 32 33 34 35 36
000
FTUS41 KRNK 202332
TAFLWB
TAF
KLWB 202332Z 2100/2124 VRB03KT P6SM FEW250
     FM210600 00000KT P6SM SCT050
     FM210900 00000KT 4SM BR SCT050
      TEMPO 2109/2112 2SM BR SCT003 BKN050
     FM211300 28004KT P6SM SCT090
     FM211600 29006KT P6SM VCTS BKN050CB
     FM212200 28005KT P6SM BKN090=

USA.gov is the U.S. government's official web portal to all federal, state and local government web resources and services.